createdAt,value
2019-05-20T00:02:02.721Z,53.40
2019-05-20T00:04:31.543Z,53.50
2019-05-20T00:07:00.355Z,53.50
2019-05-20T00:09:29.178Z,53.40
2019-05-20T00:11:57.989Z,54.10
2019-05-20T00:14:26.812Z,53.50
2019-05-20T00:16:55.642Z,53.60
2019-05-20T00:19:24.488Z,53.70
2019-05-20T00:21:53.266Z,53.60
2019-05-20T00:24:22.096Z,53.80
2019-05-20T00:26:50.910Z,53.70
2019-05-20T00:29:19.736Z,53.80
2019-05-20T00:31:48.553Z,53.80
2019-05-20T00:34:17.375Z,53.80
2019-05-20T00:36:46.196Z,53.60
2019-05-20T00:39:21.544Z,53.70
2019-05-20T00:41:50.367Z,53.70
2019-05-20T00:44:19.388Z,53.80
2019-05-20T00:46:48.222Z,53.80
2019-05-20T00:49:17.028Z,53.80
2019-05-20T00:51:45.949Z,53.70
2019-05-20T00:54:14.970Z,53.70
2019-05-20T00:56:43.886Z,53.70
2019-05-20T00:59:12.707Z,53.60
2019-05-20T01:01:41.651Z,53.60
2019-05-20T01:04:10.539Z,53.60
2019-05-20T01:06:39.433Z,53.60
2019-05-20T01:09:08.653Z,53.50
2019-05-20T01:11:37.523Z,53.60
2019-05-20T01:14:05.188Z,53.60
2019-05-20T01:16:34.222Z,53.50
2019-05-20T01:19:03.074Z,53.50
2019-05-20T01:21:31.891Z,53.50
2019-05-20T01:24:00.754Z,53.60
2019-05-20T01:26:29.664Z,53.60
2019-05-20T01:28:58.470Z,53.50
2019-05-20T01:31:27.285Z,53.40
2019-05-20T01:33:56.117Z,53.40
2019-05-20T01:36:24.935Z,53.50
2019-05-20T01:38:53.796Z,53.40
2019-05-20T01:41:22.717Z,53.40
2019-05-20T01:43:51.580Z,53.40
2019-05-20T01:46:21.529Z,53.20
2019-05-20T01:48:50.414Z,53.20
2019-05-20T01:51:19.279Z,53.20
2019-05-20T01:53:48.147Z,53.40
2019-05-20T01:56:17.093Z,53.40
2019-05-20T01:58:45.990Z,53.30
2019-05-20T02:01:14.851Z,53.40
2019-05-20T02:03:43.764Z,53.20
2019-05-20T02:06:12.628Z,53.20
2019-05-20T02:08:41.518Z,53.10
2019-05-20T02:11:10.439Z,53.20
2019-05-20T02:13:57.222Z,53.20
2019-05-20T02:16:27.651Z,53.30
2019-05-20T02:18:56.469Z,53.30
2019-05-20T02:21:25.359Z,53.20
2019-05-20T02:23:54.159Z,53.20
2019-05-20T02:26:23.248Z,53.10
2019-05-20T02:28:52.109Z,53.30
2019-05-20T02:31:20.935Z,53.30
2019-05-20T02:33:52.151Z,53.10
2019-05-20T02:36:20.357Z,53.30
2019-05-20T02:38:49.244Z,53.30
2019-05-20T02:41:18.111Z,53.30
2019-05-20T02:43:46.995Z,53.30
2019-05-20T02:46:15.832Z,53.30
2019-05-20T02:48:44.644Z,53.30
2019-05-20T02:51:13.581Z,53.30
2019-05-20T02:53:43.426Z,53.50
2019-05-20T02:56:12.227Z,53.40
2019-05-20T02:58:41.044Z,53.30
2019-05-20T03:01:09.987Z,53.40
2019-05-20T03:03:38.784Z,53.50
2019-05-20T03:06:07.646Z,53.40
2019-05-20T03:08:36.454Z,53.40
2019-05-20T03:11:07.145Z,53.50
2019-05-20T03:13:35.952Z,53.50
2019-05-20T03:16:04.775Z,53.30
2019-05-20T03:18:33.599Z,53.30
2019-05-20T03:21:02.431Z,53.20
2019-05-20T03:23:31.344Z,53.20
2019-05-20T03:26:00.186Z,53.20
2019-05-20T03:28:28.987Z,53.30
2019-05-20T03:30:57.821Z,53.20
2019-05-20T03:33:26.656Z,53.20
2019-05-20T03:35:55.464Z,53.20
2019-05-20T03:38:24.303Z,53.10
2019-05-20T03:40:53.118Z,53.30
2019-05-20T03:43:21.934Z,53.30
2019-05-20T03:45:50.751Z,53.30
2019-05-20T03:48:19.579Z,53.30
2019-05-20T03:50:48.397Z,53.20
2019-05-20T03:53:17.281Z,53.30
2019-05-20T03:55:46.092Z,53.30
2019-05-20T03:58:14.916Z,53.40
2019-05-20T04:00:48.013Z,53.20
2019-05-20T04:03:17.011Z,53.30
2019-05-20T04:05:45.841Z,53.30
2019-05-20T04:08:14.701Z,53.30
2019-05-20T04:10:43.483Z,53.90
2019-05-20T04:13:12.307Z,53.20
2019-05-20T04:15:41.158Z,52.90
2019-05-20T04:18:09.973Z,52.80
2019-05-20T04:20:38.886Z,52.50
2019-05-20T04:23:07.711Z,52.30
2019-05-20T04:25:36.536Z,52.90
2019-05-20T04:28:05.545Z,51.90
2019-05-20T04:30:34.372Z,51.80
2019-05-20T04:33:03.203Z,51.70
2019-05-20T04:35:32.026Z,51.40
2019-05-20T04:38:00.835Z,49.30
2019-05-20T04:40:29.662Z,47.70
2019-05-20T04:42:58.575Z,46.70
2019-05-20T04:45:27.399Z,45.90
2019-05-20T04:47:56.219Z,45.30
2019-05-20T04:50:25.039Z,45.20
2019-05-20T04:52:53.862Z,45.80
2019-05-20T04:55:22.697Z,44.90
2019-05-20T04:57:51.507Z,44.10
2019-05-20T05:00:42.579Z,44.30
2019-05-20T05:03:11.403Z,44.10
2019-05-20T05:05:40.230Z,43.90
2019-05-20T05:08:09.055Z,42.70
2019-05-20T05:10:37.975Z,43.40
2019-05-20T05:13:06.807Z,43.90
2019-05-20T05:15:35.635Z,44.80
2019-05-20T05:18:04.552Z,45.10
2019-05-20T05:20:33.391Z,45.30
2019-05-20T05:23:02.207Z,45.50
2019-05-20T05:25:31.041Z,45.70
2019-05-20T05:27:59.858Z,46.20
2019-05-20T05:30:28.682Z,46.30
2019-05-20T05:32:57.499Z,46.50
2019-05-20T05:35:26.385Z,46.40
2019-05-20T05:37:55.338Z,46.50
2019-05-20T05:40:29.275Z,46.40
2019-05-20T05:42:58.096Z,46.20
2019-05-20T05:45:31.871Z,45.60
2019-05-20T05:48:00.891Z,46.10
2019-05-20T05:50:29.703Z,46.30
2019-05-20T05:52:58.602Z,46.40
2019-05-20T05:55:27.531Z,46.40
2019-05-20T05:57:56.397Z,46.40
2019-05-20T06:00:25.323Z,46.50
2019-05-20T06:02:54.156Z,46.60
2019-05-20T06:05:22.991Z,46.60
2019-05-20T06:07:51.828Z,46.70
2019-05-20T06:10:21.247Z,46.70
2019-05-20T06:12:51.611Z,46.80
2019-05-20T06:15:22.125Z,46.70
2019-05-20T06:17:58.065Z,46.60
2019-05-20T06:20:27.062Z,46.60
2019-05-20T06:22:55.918Z,46.60
2019-05-20T06:25:24.740Z,46.50
2019-05-20T06:27:53.596Z,46.60
2019-05-20T06:30:25.326Z,46.40
2019-05-20T06:32:54.268Z,46.40
2019-05-20T06:35:23.169Z,46.40
2019-05-20T06:37:53.863Z,46.40
2019-05-20T06:40:22.684Z,46.40
2019-05-20T06:42:51.607Z,46.30
2019-05-20T06:45:20.523Z,46.30
2019-05-20T06:47:49.350Z,46.20
2019-05-20T06:50:18.206Z,46.30
2019-05-20T06:52:47.076Z,46.40
2019-05-20T06:55:16.197Z,46.50
2019-05-20T06:57:45.119Z,46.50
2019-05-20T07:00:14.351Z,46.60
2019-05-20T07:02:43.218Z,46.60
2019-05-20T07:05:12.239Z,46.70
2019-05-20T07:07:41.127Z,46.80
2019-05-20T07:10:10.365Z,46.90
2019-05-20T07:12:41.647Z,46.80
2019-05-20T07:15:09.956Z,47.00
2019-05-20T07:17:38.774Z,47.20
2019-05-20T07:20:07.675Z,47.30
2019-05-20T07:22:53.903Z,47.50
2019-05-20T07:25:07.638Z,47.50
2019-05-20T07:27:36.469Z,47.50
2019-05-20T07:30:08.931Z,47.30
2019-05-20T07:32:37.744Z,47.30
2019-05-20T07:35:26.194Z,47.40
2019-05-20T07:37:41.684Z,47.40
2019-05-20T07:40:11.120Z,47.30
2019-05-20T07:42:40.058Z,47.10
2019-05-20T07:45:09.284Z,47.00
2019-05-20T07:47:38.615Z,46.80
2019-05-20T07:50:08.838Z,46.80
2019-05-20T07:52:38.498Z,46.70
2019-05-20T07:55:08.725Z,46.80
2019-05-20T07:57:40.739Z,46.70
2019-05-20T08:00:10.263Z,46.70
2019-05-20T08:02:39.381Z,46.70
2019-05-20T08:05:09.889Z,46.70
2019-05-20T08:07:51.216Z,46.70
2019-05-20T08:10:10.078Z,46.80
2019-05-20T08:12:38.878Z,46.80
2019-05-20T08:15:09.126Z,46.70
2019-05-20T08:17:38.025Z,46.70
2019-05-20T08:20:07.745Z,46.60
2019-05-20T08:22:36.663Z,46.70
2019-05-20T08:25:08.642Z,46.70
2019-05-20T08:27:37.451Z,46.80
2019-05-20T08:30:13.889Z,46.90
2019-05-20T08:32:40.496Z,47.10
2019-05-20T08:35:09.623Z,47.60
2019-05-20T08:37:45.479Z,47.80
2019-05-20T08:40:09.061Z,47.80
2019-05-20T08:42:37.876Z,48.00
2019-05-20T08:45:08.637Z,48.10
2019-05-20T08:47:37.595Z,48.10
2019-05-20T08:50:10.832Z,48.10
2019-05-20T08:52:37.539Z,48.10
2019-05-20T08:55:06.564Z,48.10
2019-05-20T08:57:35.395Z,48.00
2019-05-20T09:00:05.514Z,48.00
2019-05-20T09:02:36.077Z,48.00
2019-05-20T09:05:06.495Z,48.00
2019-05-20T09:07:35.484Z,48.00
2019-05-20T09:10:05.379Z,48.00
2019-05-20T09:12:34.203Z,48.00
2019-05-20T09:15:03.318Z,48.00
2019-05-20T09:17:32.151Z,47.90
2019-05-20T09:20:01.919Z,47.90
2019-05-20T09:22:31.371Z,47.90
2019-05-20T09:25:00.463Z,47.80
2019-05-20T09:27:29.425Z,47.80
2019-05-20T09:29:58.346Z,47.80
2019-05-20T09:32:27.576Z,47.70
2019-05-20T09:34:56.519Z,47.60
2019-05-20T09:37:25.431Z,47.60
2019-05-20T09:39:54.324Z,47.40
2019-05-20T09:42:23.139Z,47.30
2019-05-20T09:44:51.965Z,47.10
2019-05-20T09:47:20.795Z,47.00
2019-05-20T09:49:49.624Z,47.00
2019-05-20T09:52:18.471Z,46.70
2019-05-20T09:54:47.372Z,46.60
2019-05-20T09:57:16.184Z,46.50
2019-05-20T09:59:45.020Z,46.50
2019-05-20T10:02:13.835Z,46.30
2019-05-20T10:04:42.659Z,46.20
2019-05-20T10:07:11.475Z,46.30
2019-05-20T10:09:40.335Z,46.30
2019-05-20T10:12:09.146Z,46.30
2019-05-20T10:14:38.032Z,46.40
2019-05-20T10:17:06.855Z,46.40
2019-05-20T10:19:35.671Z,46.40
2019-05-20T10:22:04.501Z,46.30
2019-05-20T10:24:33.369Z,46.40
2019-05-20T10:27:02.148Z,46.40
2019-05-20T10:29:30.967Z,46.20
2019-05-20T10:31:59.846Z,45.90
2019-05-20T10:34:28.660Z,46.00
2019-05-20T10:36:57.538Z,46.10
2019-05-20T10:39:26.290Z,46.00
2019-05-20T10:41:55.105Z,45.80
2019-05-20T10:44:23.930Z,46.00
2019-05-20T10:46:52.856Z,46.00
2019-05-20T10:49:21.672Z,45.90
2019-05-20T10:51:50.498Z,46.10
2019-05-20T10:54:19.340Z,46.50
2019-05-20T10:56:48.156Z,46.50
2019-05-20T10:59:16.970Z,46.50
2019-05-20T11:01:45.787Z,46.50
2019-05-20T11:04:14.616Z,46.60
2019-05-20T11:06:43.464Z,46.70
2019-05-20T11:09:14.412Z,46.70
2019-05-20T11:11:42.875Z,46.70
2019-05-20T11:14:11.685Z,46.70
2019-05-20T11:16:40.517Z,46.80
2019-05-20T11:19:09.331Z,46.60
2019-05-20T11:21:38.172Z,46.60
2019-05-20T11:24:07.100Z,46.60
2019-05-20T11:26:35.917Z,46.70
2019-05-20T11:29:04.729Z,46.70
2019-05-20T11:31:33.615Z,46.80
2019-05-20T11:34:02.485Z,46.60
2019-05-20T11:36:31.323Z,46.60
2019-05-20T11:39:00.142Z,46.70
2019-05-20T11:41:52.316Z,46.70
2019-05-20T11:43:59.451Z,46.70
2019-05-20T11:46:28.331Z,46.80
2019-05-20T11:48:57.149Z,46.90
2019-05-20T11:51:25.968Z,46.80
2019-05-20T11:53:54.775Z,46.90
2019-05-20T11:56:23.781Z,47.10
2019-05-20T11:58:52.571Z,47.10
2019-05-20T12:01:21.427Z,47.10
2019-05-20T12:03:50.309Z,46.90
2019-05-20T12:06:19.126Z,46.70
2019-05-20T12:08:47.947Z,46.70
2019-05-20T12:11:16.775Z,46.40
2019-05-20T12:13:45.583Z,46.30
2019-05-20T12:16:14.458Z,46.50
2019-05-20T12:18:45.223Z,46.60
2019-05-20T12:21:13.719Z,46.70
2019-05-20T12:23:42.539Z,46.70
2019-05-20T12:26:11.395Z,46.70
2019-05-20T12:28:40.695Z,47.00
2019-05-20T12:31:09.511Z,47.10
2019-05-20T12:33:38.335Z,47.20
2019-05-20T12:36:07.254Z,47.30
2019-05-20T12:38:36.090Z,47.50
2019-05-20T12:41:04.903Z,47.60
2019-05-20T12:43:33.723Z,47.70
2019-05-20T12:46:02.826Z,47.60
2019-05-20T12:48:31.731Z,47.60
2019-05-20T12:51:01.331Z,47.80
2019-05-20T12:53:30.147Z,47.90
2019-05-20T12:55:58.965Z,48.00
2019-05-20T12:58:27.785Z,48.00
2019-05-20T13:00:56.628Z,48.00
2019-05-20T13:03:25.454Z,47.90
2019-05-20T13:05:54.348Z,47.90
2019-05-20T13:08:23.160Z,47.90
2019-05-20T13:10:51.974Z,47.70
2019-05-20T13:13:20.799Z,47.60
2019-05-20T13:15:49.616Z,47.60
2019-05-20T13:18:18.452Z,47.70
2019-05-20T13:20:47.301Z,47.80
2019-05-20T13:23:16.104Z,47.90
2019-05-20T13:25:44.933Z,47.80
2019-05-20T13:28:13.751Z,47.80
2019-05-20T13:30:42.572Z,47.70
2019-05-20T13:33:11.405Z,48.30
2019-05-20T13:35:40.216Z,47.70
2019-05-20T13:38:09.029Z,47.70
2019-05-20T13:40:46.474Z,47.70
2019-05-20T13:43:08.321Z,47.70
2019-05-20T13:45:37.140Z,47.70
2019-05-20T13:48:05.969Z,47.60
2019-05-20T13:50:34.805Z,47.70
2019-05-20T13:53:03.731Z,47.70
2019-05-20T13:55:32.543Z,47.80
2019-05-20T13:58:01.435Z,47.70
2019-05-20T14:00:30.179Z,47.80
2019-05-20T14:02:59.013Z,47.90
2019-05-20T14:05:27.854Z,47.90
2019-05-20T14:07:57.207Z,48.00
2019-05-20T14:10:26.136Z,48.00
2019-05-20T14:12:54.961Z,48.00
2019-05-20T14:15:25.053Z,47.90
2019-05-20T14:17:53.932Z,48.00
2019-05-20T14:20:22.859Z,47.90
2019-05-20T14:22:51.962Z,47.90
2019-05-20T14:25:20.850Z,47.90
2019-05-20T14:27:49.910Z,47.80
2019-05-20T14:30:18.808Z,47.70
2019-05-20T14:32:47.889Z,47.70
2019-05-20T14:35:17.124Z,47.70
2019-05-20T14:37:46.249Z,47.60
2019-05-20T14:40:15.375Z,47.50
2019-05-20T14:42:44.478Z,47.30
2019-05-20T14:45:13.807Z,46.60
2019-05-20T14:47:42.935Z,46.40
2019-05-20T14:50:12.342Z,46.60
2019-05-20T14:52:41.454Z,46.70
2019-05-20T14:55:10.451Z,46.60
2019-05-20T14:57:39.261Z,46.60
2019-05-20T15:00:09.193Z,46.50
2019-05-20T15:02:38.020Z,46.50
2019-05-20T15:05:07.793Z,46.80
2019-05-20T15:07:36.679Z,47.20
2019-05-20T15:10:09.869Z,47.60
2019-05-20T15:12:38.940Z,48.00
2019-05-20T15:15:08.465Z,48.10
2019-05-20T15:17:37.283Z,48.10
2019-05-20T15:20:07.607Z,47.90
2019-05-20T15:22:36.424Z,48.00
2019-05-20T15:25:06.266Z,48.10
2019-05-20T15:27:35.094Z,47.90
2019-05-20T15:30:05.214Z,48.00
2019-05-20T15:32:34.036Z,48.00
2019-05-20T15:35:03.072Z,48.00
2019-05-20T15:37:32.188Z,48.10
2019-05-20T15:40:01.336Z,48.00
2019-05-20T15:42:30.386Z,48.00
2019-05-20T15:44:59.454Z,48.00
2019-05-20T15:47:28.601Z,48.20
2019-05-20T15:49:57.717Z,48.20
2019-05-20T15:52:27.111Z,48.20
2019-05-20T15:54:56.193Z,48.10
2019-05-20T15:57:25.092Z,48.30
2019-05-20T15:59:55.243Z,48.40
2019-05-20T16:02:24.260Z,48.50
2019-05-20T16:04:53.057Z,48.60
2019-05-20T16:07:22.258Z,48.60
2019-05-20T16:09:51.382Z,48.70
2019-05-20T16:12:20.291Z,48.80
2019-05-20T16:14:51.420Z,48.60
2019-05-20T16:17:19.748Z,48.70
2019-05-20T16:19:48.561Z,48.90
2019-05-20T16:22:17.386Z,48.90
2019-05-20T16:24:46.224Z,49.10
2019-05-20T16:27:15.207Z,48.70
2019-05-20T16:29:44.078Z,48.90
2019-05-20T16:32:12.908Z,49.00
2019-05-20T16:34:41.740Z,49.00
2019-05-20T16:37:10.576Z,49.00
2019-05-20T16:39:39.401Z,48.90
2019-05-20T16:42:08.249Z,49.00
2019-05-20T16:44:37.047Z,49.10
2019-05-20T16:47:05.870Z,49.00
2019-05-20T16:49:34.693Z,48.90
2019-05-20T16:52:03.529Z,49.00
2019-05-20T16:54:32.359Z,48.90
2019-05-20T16:57:01.199Z,49.10
2019-05-20T16:59:30.017Z,49.50
2019-05-20T17:01:58.855Z,49.20
2019-05-20T17:04:27.676Z,49.20
2019-05-20T17:06:56.513Z,49.20
2019-05-20T17:09:25.330Z,49.30
2019-05-20T17:11:54.151Z,49.20
2019-05-20T17:14:22.971Z,49.10
2019-05-20T17:16:51.800Z,49.30
2019-05-20T17:19:20.610Z,49.40
2019-05-20T17:21:49.429Z,49.50
2019-05-20T17:24:18.247Z,49.50
2019-05-20T17:26:47.109Z,49.50
2019-05-20T17:29:15.896Z,49.60
2019-05-20T17:31:44.722Z,49.50
2019-05-20T17:34:13.571Z,49.50
2019-05-20T17:36:42.368Z,49.50
2019-05-20T17:39:11.188Z,49.50
2019-05-20T17:41:40.035Z,49.70
2019-05-20T17:44:08.859Z,49.70
2019-05-20T17:46:37.679Z,49.70
2019-05-20T17:49:06.494Z,49.70
2019-05-20T17:51:35.324Z,49.70
2019-05-20T17:54:04.219Z,49.60
2019-05-20T17:56:33.061Z,49.50
2019-05-20T17:59:01.956Z,49.50
2019-05-20T18:01:30.916Z,49.50
2019-05-20T18:03:59.744Z,49.50
2019-05-20T18:06:28.629Z,49.60
2019-05-20T18:08:58.958Z,49.50
2019-05-20T18:11:29.507Z,49.50
2019-05-20T18:13:58.569Z,49.30
2019-05-20T18:16:27.543Z,49.40
2019-05-20T18:18:56.367Z,49.40
2019-05-20T18:21:25.176Z,49.50
2019-05-20T18:23:54.009Z,49.50
2019-05-20T18:26:22.825Z,49.50
2019-05-20T18:28:51.654Z,49.50
2019-05-20T18:31:31.772Z,49.60
2019-05-20T18:33:50.974Z,49.60
2019-05-20T18:36:19.781Z,49.60
2019-05-20T18:38:49.626Z,49.60
2019-05-20T18:41:18.767Z,49.70
2019-05-20T18:43:47.590Z,49.60
2019-05-20T18:46:16.423Z,49.70
2019-05-20T18:48:45.268Z,49.70
2019-05-20T18:51:14.082Z,49.70
2019-05-20T18:53:42.897Z,49.70
2019-05-20T18:56:11.711Z,49.70
2019-05-20T18:58:40.532Z,49.80
2019-05-20T19:01:09.360Z,49.70
2019-05-20T19:03:38.287Z,49.60
2019-05-20T19:06:07.158Z,49.70
2019-05-20T19:08:35.971Z,50.20
2019-05-20T19:11:04.810Z,47.10
2019-05-20T19:13:33.632Z,45.60
2019-05-20T19:16:02.461Z,44.40
2019-05-20T19:18:31.289Z,44.30
2019-05-20T19:21:00.115Z,44.00
2019-05-20T19:23:28.926Z,43.50
2019-05-20T19:25:57.777Z,43.70
2019-05-20T19:28:26.617Z,43.30
2019-05-20T19:30:55.461Z,42.80
2019-05-20T19:33:24.707Z,43.30
2019-05-20T19:35:53.574Z,42.30
2019-05-20T19:38:22.949Z,42.30
2019-05-20T19:40:51.771Z,42.30
2019-05-20T19:43:20.600Z,42.00
2019-05-20T19:45:49.419Z,41.80
2019-05-20T19:48:18.258Z,42.30
2019-05-20T19:50:47.077Z,43.80
2019-05-20T19:53:15.922Z,43.60
2019-05-20T19:55:44.727Z,44.70
2019-05-20T19:58:13.559Z,45.50
2019-05-20T20:00:42.460Z,45.90
2019-05-20T20:03:11.264Z,46.00
2019-05-20T20:05:40.087Z,46.60
2019-05-20T20:08:08.949Z,47.00
2019-05-20T20:10:37.768Z,47.40
2019-05-20T20:13:06.605Z,47.30
2019-05-20T20:15:35.409Z,47.50
2019-05-20T20:18:04.314Z,47.90
2019-05-20T20:20:33.156Z,48.00
2019-05-20T20:23:01.977Z,48.40
2019-05-20T20:25:30.848Z,48.50
2019-05-20T20:28:00.766Z,48.60
2019-05-20T20:30:29.595Z,49.10
2019-05-20T20:32:58.431Z,49.20
2019-05-20T20:35:37.606Z,49.30
2019-05-20T20:37:57.725Z,49.10
2019-05-20T20:40:26.546Z,48.80
2019-05-20T20:42:55.391Z,48.90
2019-05-20T20:45:24.214Z,48.60
2019-05-20T20:47:53.031Z,48.60
2019-05-20T20:50:21.863Z,48.70
2019-05-20T20:52:50.740Z,48.90
2019-05-20T20:55:19.560Z,49.00
2019-05-20T20:57:48.382Z,49.00
2019-05-20T21:00:17.399Z,49.10
2019-05-20T21:02:53.091Z,49.00
2019-05-20T21:05:16.697Z,49.10
2019-05-20T21:07:45.553Z,49.20
2019-05-20T21:10:14.658Z,49.30
2019-05-20T21:12:43.491Z,49.50
2019-05-20T21:15:12.403Z,49.30
2019-05-20T21:17:41.243Z,49.50
2019-05-20T21:20:10.187Z,49.50
2019-05-20T21:22:38.991Z,49.60
2019-05-20T21:25:08.002Z,49.60
2019-05-20T21:27:36.829Z,49.60
2019-05-20T21:30:07.669Z,49.70
2019-05-20T21:32:36.695Z,50.20
2019-05-20T21:35:05.917Z,49.60
2019-05-20T21:37:34.722Z,49.50
2019-05-20T21:40:03.759Z,49.60
2019-05-20T21:42:32.566Z,49.60
2019-05-20T21:45:01.460Z,49.60
2019-05-20T21:47:30.272Z,49.60
2019-05-20T21:49:59.169Z,49.50
2019-05-20T21:52:29.494Z,49.50
2019-05-20T21:54:58.327Z,49.50
2019-05-20T21:57:27.142Z,49.50
2019-05-20T21:59:55.967Z,49.50
2019-05-20T22:02:26.737Z,49.40
2019-05-20T22:04:55.184Z,49.40
2019-05-20T22:07:24.214Z,49.30
2019-05-20T22:09:53.091Z,49.10
2019-05-20T22:12:21.839Z,49.10
2019-05-20T22:14:50.623Z,49.10
2019-05-20T22:17:19.390Z,49.10
2019-05-20T22:19:48.168Z,49.30
2019-05-20T22:22:30.132Z,49.40
2019-05-20T22:24:58.919Z,49.40
2019-05-20T22:27:27.703Z,49.40
2019-05-20T22:29:56.478Z,49.30
2019-05-20T22:32:25.282Z,49.50
2019-05-20T22:34:54.145Z,49.50
2019-05-20T22:37:22.925Z,49.40
2019-05-20T22:39:51.695Z,49.40
2019-05-20T22:42:20.472Z,49.60
2019-05-20T22:44:49.246Z,49.60
2019-05-20T22:47:18.015Z,49.50
2019-05-20T22:49:46.807Z,49.30
2019-05-20T22:52:15.579Z,49.50
2019-05-20T22:54:44.358Z,49.60
2019-05-20T22:57:13.147Z,49.60
2019-05-20T22:59:41.923Z,49.50
2019-05-20T23:02:10.699Z,49.50
2019-05-20T23:04:39.518Z,49.70
2019-05-20T23:07:08.247Z,49.60
2019-05-20T23:09:37.037Z,49.50
2019-05-20T23:12:05.815Z,49.50
2019-05-20T23:14:34.621Z,49.40
2019-05-20T23:17:03.418Z,49.50
2019-05-20T23:19:32.171Z,49.60
2019-05-20T23:22:00.954Z,49.60
2019-05-20T23:24:29.738Z,49.80
2019-05-20T23:26:58.514Z,49.60
2019-05-20T23:29:27.286Z,49.70
2019-05-20T23:31:56.075Z,49.70
2019-05-20T23:34:24.951Z,49.80
2019-05-20T23:36:53.731Z,49.80
2019-05-20T23:39:22.515Z,49.70
2019-05-20T23:41:51.307Z,49.70
2019-05-20T23:44:20.090Z,49.80
2019-05-20T23:46:48.882Z,49.90
2019-05-20T23:49:17.803Z,49.90
2019-05-20T23:51:46.591Z,49.70
2019-05-20T23:54:15.415Z,49.70
2019-05-20T23:56:44.235Z,49.80
2019-05-20T23:59:13.067Z,50.00
